createdAt,value
2019-03-23T00:05:36.380Z,6.03
2019-03-23T00:11:31.392Z,5.7
2019-03-23T00:17:26.403Z,5.24
2019-03-23T00:23:21.372Z,5.24
2019-03-23T00:29:16.382Z,5.87
2019-03-23T00:35:11.393Z,6.06
2019-03-23T00:41:06.376Z,5.38
2019-03-23T00:47:01.373Z,5.35
2019-03-23T00:52:56.448Z,5.54
2019-03-23T00:58:51.371Z,4.9
2019-03-23T01:04:46.385Z,5.99
2019-03-23T01:10:41.372Z,4.52
2019-03-23T01:16:36.376Z,5.11
2019-03-23T01:22:31.387Z,5.3
2019-03-23T01:28:26.341Z,5.83
2019-03-23T01:34:21.370Z,6.85
2019-03-23T01:40:16.344Z,7.55
2019-03-23T01:46:11.345Z,6.33
2019-03-23T01:52:06.406Z,6.5
2019-03-23T01:58:01.430Z,6.68
2019-03-23T02:03:56.399Z,6.8
2019-03-23T02:09:51.415Z,6.57
2019-03-23T02:15:46.361Z,6.24
2019-03-23T02:21:41.430Z,6.22
2019-03-23T02:27:36.402Z,6.4
2019-03-23T02:33:31.382Z,6.69
2019-03-23T02:39:26.414Z,6.08
2019-03-23T02:45:21.388Z,6.51
2019-03-23T02:51:16.400Z,5.74
2019-03-23T02:57:11.385Z,5.65
2019-03-23T03:03:06.390Z,6.08
2019-03-23T03:09:01.401Z,7.38
2019-03-23T03:14:56.350Z,13.58
2019-03-23T03:20:51.382Z,9.08
2019-03-23T03:26:46.354Z,6.04
2019-03-23T03:32:41.374Z,5.99
2019-03-23T03:38:36.415Z,5.45
2019-03-23T03:44:31.380Z,5.02
2019-03-23T03:50:26.461Z,8.72
2019-03-23T03:56:21.347Z,3.87
2019-03-23T04:02:16.388Z,4.19
2019-03-23T04:08:11.983Z,4.95
2019-03-23T04:14:06.357Z,4.18
2019-03-23T04:20:01.366Z,4.05
2019-03-23T04:25:56.394Z,5.06
2019-03-23T04:31:51.430Z,5.51
2019-03-23T04:37:46.366Z,5.52
2019-03-23T04:43:41.410Z,4.73
2019-03-23T04:49:36.376Z,4.73
2019-03-23T04:55:31.436Z,4.31
2019-03-23T05:01:26.382Z,5.19
2019-03-23T05:07:21.386Z,4.45
2019-03-23T05:13:16.401Z,4.37
2019-03-23T05:19:11.395Z,5.02
2019-03-23T05:25:06.382Z,4.25
2019-03-23T05:31:01.408Z,5.2
2019-03-23T05:36:56.427Z,4.99
2019-03-23T05:42:51.390Z,6.15
2019-03-23T05:48:46.367Z,6
2019-03-23T05:54:41.429Z,5.63
2019-03-23T06:00:36.402Z,5.42
2019-03-23T06:06:31.377Z,6.57
2019-03-23T06:12:26.401Z,6.43
2019-03-23T06:18:21.440Z,6.67
2019-03-23T06:24:16.379Z,5.89
2019-03-23T06:30:11.386Z,5.6
2019-03-23T06:36:06.395Z,5.59
2019-03-23T06:42:01.406Z,4.79
2019-03-23T06:47:56.390Z,5.71
2019-03-23T06:53:51.414Z,5.28
2019-03-23T06:59:46.382Z,7.33
2019-03-23T07:05:41.423Z,6.32
2019-03-23T07:11:36.400Z,6.15
2019-03-23T07:17:31.402Z,6.08
2019-03-23T07:23:26.407Z,5.7
2019-03-23T07:29:21.414Z,6
2019-03-23T07:35:16.411Z,7.23
2019-03-23T07:41:11.402Z,6.1
2019-03-23T07:47:06.390Z,5.76
2019-03-23T07:53:01.455Z,5.02
2019-03-23T07:58:56.412Z,4.26
2019-03-23T08:04:51.407Z,5.53
2019-03-23T08:10:46.394Z,4.48
2019-03-23T08:16:41.397Z,4.64
2019-03-23T08:22:36.411Z,4.48
2019-03-23T08:28:32.449Z,3.92
2019-03-23T08:34:26.426Z,3.43
2019-03-23T08:40:21.406Z,4.35
2019-03-23T08:46:16.418Z,3.33
2019-03-23T08:52:11.416Z,2.9
2019-03-23T08:58:06.444Z,3.29
2019-03-23T09:04:01.450Z,2.38
2019-03-23T09:09:59.242Z,3.17
2019-03-23T09:15:51.418Z,2.85
2019-03-23T09:21:46.430Z,3.86
2019-03-23T09:27:41.448Z,5.39
2019-03-23T09:33:36.428Z,4.16
2019-03-23T09:39:31.432Z,5.21
2019-03-23T09:45:26.436Z,2.97
2019-03-23T09:51:21.427Z,3.2
2019-03-23T09:57:16.450Z,2.77
2019-03-23T10:03:11.424Z,3.11
2019-03-23T10:09:06.480Z,3.7
2019-03-23T10:15:01.466Z,3.23
2019-03-23T10:20:56.490Z,4.18
2019-03-23T10:26:52.293Z,3.23
2019-03-23T10:32:46.445Z,3.69
2019-03-23T10:38:41.444Z,4.52
2019-03-23T10:44:36.426Z,4.07
2019-03-23T10:50:31.450Z,4.08
2019-03-23T10:56:26.450Z,4.25
2019-03-23T11:02:21.480Z,4.53
2019-03-23T11:08:16.460Z,5.23
2019-03-23T11:14:11.442Z,6.24
2019-03-23T11:20:06.495Z,5.6
2019-03-23T11:26:01.454Z,4.32
2019-03-23T11:31:56.469Z,4.63
2019-03-23T11:37:51.582Z,4.73
2019-03-23T11:43:46.512Z,4.2
2019-03-23T11:49:41.471Z,5.03
2019-03-23T11:55:36.466Z,5.15
2019-03-23T12:01:31.465Z,4.85
2019-03-23T12:07:26.489Z,3.97
2019-03-23T12:13:21.451Z,4.78
2019-03-23T12:19:16.469Z,4.04
2019-03-23T12:25:11.480Z,4.38
2019-03-23T12:31:06.471Z,4.61
2019-03-23T12:37:01.470Z,4.85
2019-03-23T12:42:56.494Z,4.35
2019-03-23T12:48:51.485Z,4.03
2019-03-23T12:54:46.515Z,3.71
2019-03-23T13:00:41.485Z,4.23
2019-03-23T13:06:36.507Z,5.31
2019-03-23T13:12:31.497Z,4.36
2019-03-23T13:18:27.202Z,7.27
2019-03-23T13:24:22.661Z,6.03
2019-03-23T13:30:16.562Z,5.77
2019-03-23T13:36:11.555Z,4.74
2019-03-23T13:42:06.570Z,5.2
2019-03-23T13:48:01.503Z,6.33
2019-03-23T13:53:56.534Z,6.36
2019-03-23T13:59:51.496Z,5.48
2019-03-23T14:05:46.541Z,6.13
2019-03-23T14:11:41.542Z,5.57
2019-03-23T14:17:36.529Z,6.4
2019-03-23T14:23:31.566Z,5.33
2019-03-23T14:29:26.555Z,4.89
2019-03-23T14:35:21.526Z,4.88
2019-03-23T14:41:16.512Z,4.81
2019-03-23T14:47:11.514Z,4.99
2019-03-23T14:53:06.529Z,5.39
2019-03-23T14:59:01.547Z,5.1
2019-03-23T15:04:56.519Z,4.83
2019-03-23T15:10:51.532Z,4.9
2019-03-23T15:16:46.536Z,5.53
2019-03-23T15:22:41.532Z,6.04
2019-03-23T15:28:36.580Z,5.97
2019-03-23T15:34:31.560Z,6.37
2019-03-23T15:40:26.590Z,6.89
2019-03-23T15:46:21.544Z,6.83
2019-03-23T15:52:16.537Z,6.99
2019-03-23T15:58:11.535Z,6.45
2019-03-23T16:04:06.544Z,6.56
2019-03-23T16:10:01.634Z,5.11
2019-03-23T16:15:56.564Z,5.96
2019-03-23T16:21:51.549Z,5.37
2019-03-23T16:27:46.541Z,5.05
2019-03-23T16:33:41.558Z,5.39
2019-03-23T16:39:36.597Z,5.4
2019-03-23T16:45:31.582Z,4.74
2019-03-23T16:51:26.613Z,4.76
2019-03-23T16:57:27.178Z,4.48
2019-03-23T17:03:16.565Z,4.43
2019-03-23T17:09:11.566Z,4.61
2019-03-23T17:15:06.627Z,4.72
2019-03-23T17:21:01.584Z,3.43
2019-03-23T17:26:56.581Z,4.36
2019-03-23T17:32:51.582Z,4.12
2019-03-23T17:38:46.574Z,4.18
2019-03-23T17:44:41.593Z,3.58
2019-03-23T17:50:36.572Z,6
2019-03-23T17:56:31.585Z,5.59
2019-03-23T18:02:26.607Z,5.28
2019-03-23T18:08:21.625Z,5.89
2019-03-23T18:14:16.635Z,6.26
2019-03-23T18:20:11.614Z,5.11
2019-03-23T18:26:06.597Z,5.96
2019-03-23T18:32:01.586Z,6.08
2019-03-23T18:37:56.570Z,6.82
2019-03-23T18:43:51.618Z,7.45
2019-03-23T18:49:46.641Z,6.47
2019-03-23T18:55:41.570Z,7.25
2019-03-23T19:01:36.612Z,5.4
2019-03-23T19:07:31.595Z,6.78
2019-03-23T19:13:26.566Z,6.12
2019-03-23T19:19:21.585Z,5.27
2019-03-23T19:25:18.472Z,5.56
2019-03-23T19:31:11.637Z,5.21
2019-03-23T19:37:06.598Z,5.01
2019-03-23T19:43:01.607Z,6.9
2019-03-23T19:48:56.624Z,6.02
2019-03-23T19:54:51.604Z,5.72
2019-03-23T20:00:46.600Z,5.19
2019-03-23T20:06:41.629Z,5.35
2019-03-23T20:12:36.715Z,5.11
2019-03-23T20:18:31.573Z,4.99
2019-03-23T20:24:26.678Z,5.08
2019-03-23T20:30:21.606Z,4.94
2019-03-23T20:36:16.660Z,4.67
2019-03-23T20:42:11.603Z,4.46
2019-03-23T20:48:06.594Z,9.56
2019-03-23T20:54:01.679Z,8.78
2019-03-23T20:59:56.727Z,7.62
2019-03-23T21:05:51.624Z,6.07
2019-03-23T21:11:46.602Z,6.15
2019-03-23T21:17:50.907Z,5.16
2019-03-23T21:23:36.620Z,5.05
2019-03-23T21:29:31.608Z,5.45
2019-03-23T21:35:26.590Z,5.11
2019-03-23T21:41:21.600Z,5.13
2019-03-23T21:47:16.637Z,4.54
2019-03-23T21:53:11.603Z,4.11
2019-03-23T21:59:06.626Z,4.11
2019-03-23T22:05:01.624Z,3.89
2019-03-23T22:10:56.648Z,4.04
2019-03-23T22:16:51.638Z,3.84
2019-03-23T22:22:46.638Z,3.92
2019-03-23T22:28:41.667Z,3.33
2019-03-23T22:34:36.695Z,3.77
2019-03-23T22:40:31.656Z,3.42
2019-03-23T22:46:26.648Z,3.39
2019-03-23T22:52:21.632Z,3.26
2019-03-23T22:58:16.642Z,3.03
2019-03-23T23:04:11.674Z,3.27
2019-03-23T23:10:06.690Z,3.14
2019-03-23T23:16:01.625Z,4.13
2019-03-23T23:21:56.650Z,2.88
2019-03-23T23:27:51.676Z,3.35
2019-03-23T23:33:46.693Z,3.23
2019-03-23T23:39:41.647Z,2.71
2019-03-23T23:45:36.651Z,2.31
2019-03-23T23:51:31.672Z,2.83
2019-03-23T23:57:26.687Z,2.6
